Time;durP1;ratioP1;P1;durP2;ratioP2;P2;SDS_P1;SDS_P2;PMS_P1;PMS_P2;Temp;Humidity;BMP_temperature;BMP_pressure;BME280_temperature;BME280_humidity;BME280_pressure;Samples;Min_cycle;Max_cycle;Signal;HPM_P1;HPM_P2
2022/08/07 00:01:12;;;;;;;9.13;8.63;;;;;;;13.34;50.89;101578.50;4985951;28;20040;-76
2022/08/07 00:03:38;;;;;;;8.77;8.27;;;;;;;13.23;51.56;101582.88;4982986;28;20073;-76
2022/08/07 00:06:04;;;;;;;9.30;8.60;;;;;;;13.21;51.75;101576.72;4985532;28;20023;-76
2022/08/07 00:08:29;;;;;;;8.07;7.57;;;;;;;13.21;51.50;101579.34;4967134;28;20065;-76
2022/08/07 00:10:55;;;;;;;9.15;8.65;;;;;;;13.22;51.69;101573.16;4986412;28;20480;-75
2022/08/07 00:13:21;;;;;;;8.85;8.35;;;;;;;13.16;52.32;101576.69;4987449;28;20034;-76
2022/08/07 00:15:47;;;;;;;8.85;8.35;;;;;;;13.11;52.12;101579.34;4982844;28;20039;-76
2022/08/07 00:18:17;;;;;;;10.35;8.57;;;;;;;13.11;52.47;101576.69;4968367;28;20027;-76
2022/08/07 00:20:42;;;;;;;8.05;7.55;;;;;;;13.08;52.60;101576.69;4981299;28;20040;-76
2022/08/07 00:23:08;;;;;;;9.05;8.52;;;;;;;13.08;52.71;101576.69;4984039;28;20137;-75
2022/08/07 00:25:36;;;;;;;9.07;8.57;;;;;;;13.08;52.80;101578.47;4983503;28;20101;-76
2022/08/07 00:28:02;;;;;;;8.98;8.27;;;;;;;13.02;53.87;101582.00;4985759;28;20126;-76
2022/08/07 00:30:28;;;;;;;9.40;8.90;;;;;;;12.88;53.31;101584.63;4982824;28;20125;-76
2022/08/07 00:32:58;;;;;;;9.25;8.65;;;;;;;12.84;53.94;101576.69;4984481;28;20038;-76
2022/08/07 00:35:24;;;;;;;9.00;8.50;;;;;;;12.80;54.41;101585.50;4984137;28;20033;-76
2022/08/07 00:37:50;;;;;;;8.95;8.25;;;;;;;12.75;56.81;101576.66;4987703;28;20027;-76
2022/08/07 00:40:15;;;;;;;8.77;8.00;;;;;;;12.70;59.00;101568.69;4975934;28;20386;-76
2022/08/07 00:42:41;;;;;;;8.20;7.70;;;;;;;12.60;58.07;101572.22;4982086;28;20034;-75
2022/08/07 00:45:09;;;;;;;9.20;8.57;;;;;;;12.58;57.23;101574.88;4987948;28;20034;-75
2022/08/07 00:47:35;;;;;;;8.98;8.38;;;;;;;12.50;58.26;101579.28;4968483;28;20100;-75
2022/08/07 00:50:00;;;;;;;8.90;8.40;;;;;;;12.43;58.08;101574.84;4964504;28;20484;-75
2022/08/07 00:52:26;;;;;;;9.15;8.48;;;;;;;12.39;59.73;101578.34;4964678;28;20043;-75
2022/08/07 00:54:51;;;;;;;8.07;7.57;;;;;;;12.31;58.82;101566.84;4985335;28;20031;-76
2022/08/07 00:57:17;;;;;;;8.23;7.53;;;;;;;12.28;59.93;101573.00;4982204;28;20635;-75
2022/08/07 00:59:43;;;;;;;9.10;8.50;;;;;;;12.17;59.26;101572.09;4984468;28;20034;-76
2022/08/07 01:02:10;;;;;;;9.90;9.15;;;;;;;12.12;59.03;101568.53;4983115;28;20039;-76
2022/08/07 01:04:36;;;;;;;9.48;8.95;;;;;;;12.12;58.82;101574.72;4965310;28;20093;-76
2022/08/07 01:07:02;;;;;;;10.10;9.38;;;;;;;12.13;57.76;101570.31;4963932;28;20042;-76
2022/08/07 01:09:27;;;;;;;9.90;9.20;;;;;;;12.08;58.21;101567.66;4985773;28;20038;-76
2022/08/07 01:11:54;;;;;;;9.27;8.38;;;;;;;12.10;58.14;101572.94;4981629;28;20220;-76
2022/08/07 01:14:20;;;;;;;9.07;8.48;;;;;;;12.10;57.66;101573.81;4983860;28;20388;-76
2022/08/07 01:16:46;;;;;;;9.40;8.90;;;;;;;12.09;57.64;101568.53;4983392;28;20122;-76
2022/08/07 01:19:12;;;;;;;8.73;8.02;;;;;;;11.99;58.46;101562.31;4966333;28;20054;-76
2022/08/07 01:21:38;;;;;;;9.68;9.18;;;;;;;11.83;59.16;101567.50;4963675;28;20660;-75
2022/08/07 01:24:05;;;;;;;9.57;9.07;;;;;;;11.82;58.44;101575.44;4972437;28;20042;-76
2022/08/07 01:26:31;;;;;;;9.57;8.93;;;;;;;11.84;58.94;101576.31;4966656;28;20026;-76
2022/08/07 01:28:56;;;;;;;10.18;9.48;;;;;;;11.88;58.77;101578.13;4963500;28;20480;-76
2022/08/07 01:31:30;;;;;;;10.25;9.65;;;;;;;11.87;58.77;101572.81;4963057;28;20552;-76
2022/08/07 01:33:57;;;;;;;9.60;9.00;;;;;;;11.76;60.31;101576.28;4951975;28;20169;-76
2022/08/07 01:36:28;;;;;;;9.77;9.25;;;;;;;11.77;58.55;101572.75;4965705;28;20038;-76
2022/08/07 01:38:55;;;;;;;10.77;9.70;;;;;;;11.81;58.63;101569.22;4962892;28;20034;-76
2022/08/07 01:41:23;;;;;;;9.75;9.25;;;;;;;11.83;58.68;101572.78;4974622;28;20508;-76
2022/08/07 01:43:50;;;;;;;9.40;8.90;;;;;;;11.79;58.85;101565.72;4963775;28;20054;-76
2022/08/07 01:46:17;;;;;;;9.80;9.20;;;;;;;11.71;58.64;101570.09;4964962;28;20049;-76
2022/08/07 01:48:45;;;;;;;10.30;9.63;;;;;;;11.57;60.64;101566.47;4964121;28;20026;-76
2022/08/07 01:51:20;;;;;;;10.13;9.20;;;;;;;11.44;60.45;101572.53;4970420;28;20038;-76
2022/08/07 01:53:50;;;;;;;9.88;9.18;;;;;;;11.48;60.43;101571.72;4964137;28;20026;-75
2022/08/07 01:56:24;;;;;;;9.43;8.77;;;;;;;11.46;60.65;101571.69;4964967;28;20038;-76
2022/08/07 01:59:29;;;;;;;9.15;8.55;;;;;;;11.49;60.42;101579.63;4950832;28;20515;-75
2022/08/07 02:02:02;;;;;;;9.18;8.63;;;;;;;11.57;60.71;101579.69;4963497;28;20185;-76
2022/08/07 02:04:33;;;;;;;8.93;8.43;;;;;;;11.55;61.32;101581.41;4963448;28;20070;-76
2022/08/07 02:07:03;;;;;;;8.93;8.43;;;;;;;11.40;60.73;101577.81;4965546;28;20037;-76
2022/08/07 02:09:30;;;;;;;9.55;8.85;;;;;;;11.35;60.57;101579.53;4964283;28;20041;-76
2022/08/07 02:12:15;;;;;;;9.73;9.20;;;;;;;11.34;61.05;101580.41;4966040;28;20034;-76
2022/08/07 02:14:50;;;;;;;9.10;8.50;;;;;;;11.33;61.74;101576.00;4965831;28;20035;-76
2022/08/07 02:17:22;;;;;;;9.70;8.90;;;;;;;11.29;61.67;101579.50;4964235;28;20613;-76
2022/08/07 02:19:48;;;;;;;8.45;7.95;;;;;;;11.17;62.53;101572.34;4964740;28;20034;-76
2022/08/07 02:22:15;;;;;;;8.45;7.88;;;;;;;11.09;62.11;101578.44;4962225;28;20046;-76
2022/08/07 02:24:43;;;;;;;8.77;8.27;;;;;;;11.00;63.39;101581.00;4962906;28;20513;-76
2022/08/07 02:27:15;;;;;;;8.85;8.18;;;;;;;11.04;62.84;101578.41;4967939;28;20041;-76
2022/08/07 02:29:42;;;;;;;8.70;8.20;;;;;;;11.11;62.13;101576.72;4964409;28;20038;-76
2022/08/07 02:32:09;;;;;;;8.65;8.15;;;;;;;11.16;62.32;101582.88;4965348;28;20150;-76
2022/08/07 02:34:37;;;;;;;8.73;8.15;;;;;;;11.13;62.70;101582.88;4968223;28;20164;-75
2022/08/07 02:37:07;;;;;;;8.57;7.97;;;;;;;11.13;62.86;101577.59;4968566;28;20055;-75
2022/08/07 02:39:34;;;;;;;8.65;8.13;;;;;;;11.12;63.34;101579.34;4982773;28;20106;-76
2022/08/07 02:42:01;;;;;;;8.73;8.23;;;;;;;11.10;63.47;101580.22;4982387;28;20489;-76
2022/08/07 02:44:28;;;;;;;8.95;8.18;;;;;;;11.02;63.04;101584.53;4969768;28;20374;-76
2022/08/07 02:46:56;;;;;;;8.85;8.25;;;;;;;10.96;63.16;101582.75;4964418;28;20022;-76
2022/08/07 02:49:23;;;;;;;8.93;8.20;;;;;;;10.93;62.81;101578.31;4975643;28;20026;-76
2022/08/07 02:51:51;;;;;;;9.00;8.40;;;;;;;10.96;62.84;101583.63;4966971;28;20560;-76
2022/08/07 02:54:19;;;;;;;9.38;8.77;;;;;;;10.95;62.69;101584.50;4983299;28;20038;-76
2022/08/07 02:56:46;;;;;;;9.18;8.50;;;;;;;10.95;62.27;101589.78;4963000;28;20047;-76
2022/08/07 02:59:16;;;;;;;8.43;7.82;;;;;;;10.92;63.60;101592.38;4982664;28;20047;-76
2022/08/07 03:01:43;;;;;;;8.57;8.00;;;;;;;10.89;62.42;101595.00;4964736;28;20038;-76
2022/08/07 03:04:15;;;;;;;7.82;7.32;;;;;;;10.87;62.94;101595.84;4970576;28;20452;-76
2022/08/07 03:06:43;;;;;;;8.57;7.90;;;;;;;10.78;63.12;101594.00;4974265;28;20043;-76
2022/08/07 03:09:09;;;;;;;8.57;7.97;;;;;;;10.70;63.27;101593.06;4989743;28;20105;-76
2022/08/07 03:11:36;;;;;;;9.48;8.75;;;;;;;10.66;63.58;101599.16;4967267;28;20070;-76
2022/08/07 03:14:03;;;;;;;8.20;7.70;;;;;;;10.63;63.84;101596.47;4965965;28;20069;-75
2022/08/07 03:16:30;;;;;;;8.75;8.05;;;;;;;10.57;64.32;101591.16;4970761;28;20030;-76
2022/08/07 03:18:58;;;;;;;8.18;7.68;;;;;;;10.53;64.96;101595.50;4967322;28;20023;-76
2022/08/07 03:21:24;;;;;;;8.15;7.55;;;;;;;10.56;64.58;101589.34;4976757;28;20030;-76
2022/08/07 03:23:58;;;;;;;7.97;7.47;;;;;;;10.56;64.17;101585.00;4966979;28;20526;-76
2022/08/07 03:26:29;;;;;;;8.52;8.00;;;;;;;10.58;64.47;101593.78;4966684;28;20085;-76
2022/08/07 03:28:55;;;;;;;8.05;7.55;;;;;;;10.55;63.77;101583.19;4982497;28;20034;-75
2022/08/07 03:31:22;;;;;;;8.50;8.00;;;;;;;10.47;64.29;101585.75;4964990;28;20034;-76
2022/08/07 03:33:58;;;;;;;8.95;8.07;;;;;;;10.42;63.43;101590.09;4969551;28;20035;-76
2022/08/07 03:36:26;;;;;;;8.55;8.05;;;;;;;10.33;63.96;101581.22;4968642;28;20031;-75
2022/08/07 03:38:56;;;;;;;8.27;7.68;;;;;;;10.33;65.56;101584.72;4967012;28;20453;-75
2022/08/07 03:41:22;;;;;;;8.63;8.07;;;;;;;10.36;64.61;101579.47;4965066;28;20037;-75
2022/08/07 03:43:48;;;;;;;9.18;8.30;;;;;;;10.42;64.26;101581.28;4986243;28;20030;-75
2022/08/07 03:46:14;;;;;;;8.80;8.10;;;;;;;10.40;63.39;101576.03;4966869;28;20030;-75
2022/08/07 03:48:40;;;;;;;12.98;8.30;;;;;;;10.40;64.38;101581.31;4967638;28;20063;-76
2022/08/07 03:51:07;;;;;;;8.10;7.60;;;;;;;10.43;64.56;101577.81;4947390;28;20031;-76
2022/08/07 03:53:38;;;;;;;8.40;7.90;;;;;;;10.42;64.54;101573.38;4969135;28;20041;-75
2022/08/07 03:56:06;;;;;;;8.05;7.55;;;;;;;10.34;64.47;101575.94;4962966;28;20101;-76
2022/08/07 03:58:34;;;;;;;8.45;7.85;;;;;;;10.26;65.27;101565.25;4967535;28;20035;-75
2022/08/07 04:01:02;;;;;;;8.50;8.00;;;;;;;10.34;65.36;101573.28;4983748;28;20085;-75
2022/08/07 04:03:30;;;;;;;8.18;7.63;;;;;;;10.42;64.94;101571.63;4965461;28;20094;-76
2022/08/07 04:05:56;;;;;;;7.82;7.18;;;;;;;10.46;64.53;101576.09;4968257;28;20037;-76
2022/08/07 04:08:22;;;;;;;8.40;7.90;;;;;;;10.52;64.92;101573.50;4984049;28;20062;-76
2022/08/07 04:10:51;;;;;;;8.45;7.82;;;;;;;10.55;64.22;101574.41;4969297;28;20039;-76
2022/08/07 04:13:17;;;;;;;8.32;7.63;;;;;;;10.63;64.43;101575.38;4965588;28;20031;-75
2022/08/07 04:15:43;;;;;;;8.63;8.13;;;;;;;10.71;63.33;101573.69;4965319;28;20527;-75
2022/08/07 04:18:12;;;;;;;9.30;8.70;;;;;;;10.80;63.07;101575.56;4965932;28;20045;-75
2022/08/07 04:20:38;;;;;;;8.85;8.25;;;;;;;10.85;63.38;101582.66;4965178;28;20049;-75
2022/08/07 04:23:04;;;;;;;8.40;7.90;;;;;;;10.93;63.02;101583.59;4958552;28;20202;-75
2022/08/07 04:25:39;;;;;;;8.98;8.43;;;;;;;10.99;62.46;101588.03;4973266;28;20551;-75
2022/08/07 04:28:06;;;;;;;9.50;8.90;;;;;;;10.96;63.31;101588.91;4959735;28;20050;-76
2022/08/07 04:30:33;;;;;;;8.93;8.25;;;;;;;11.03;63.09;101597.78;4966902;28;20039;-74
2022/08/07 04:33:07;;;;;;;9.48;8.73;;;;;;;11.16;62.34;101589.09;4964806;28;20038;-75
2022/08/07 04:35:33;;;;;;;9.43;8.63;;;;;;;11.28;62.10;101585.63;4962431;28;20078;-75
2022/08/07 04:37:59;;;;;;;8.98;8.32;;;;;;;11.26;62.54;101584.75;4965972;28;20043;-74
2022/08/07 04:40:24;;;;;;;8.95;8.45;;;;;;;11.36;62.43;101583.06;4966545;28;20034;-75
2022/08/07 04:42:50;;;;;;;8.40;7.85;;;;;;;11.26;63.27;101582.09;4963576;28;20070;-75
2022/08/07 04:45:16;;;;;;;9.18;8.57;;;;;;;11.33;63.24;101577.75;4966906;28;20084;-75
2022/08/07 04:47:54;;;;;;;9.32;8.63;;;;;;;11.40;63.66;101584.88;4972534;28;20034;-76
2022/08/07 04:50:38;;;;;;;8.70;8.13;;;;;;;11.52;63.40;101586.69;4966219;28;20062;-74
2022/08/07 04:53:26;;;;;;;9.32;8.70;;;;;;;11.69;62.27;101584.19;4971674;28;20033;-75
2022/08/07 04:56:00;;;;;;;9.30;8.80;;;;;;;11.83;61.79;101582.47;4971469;28;20026;-75
2022/08/07 04:58:47;;;;;;;9.73;9.13;;;;;;;11.93;62.06;101589.63;4989083;28;20026;-75
2022/08/07 05:01:50;;;;;;;9.30;8.70;;;;;;;12.15;61.44;101587.94;4977659;28;20101;-75
2022/08/07 05:04:21;;;;;;;9.73;9.13;;;;;;;12.24;61.05;101585.34;4958001;28;20252;-76
2022/08/07 05:07:15;;;;;;;9.73;8.93;;;;;;;12.41;60.95;101595.13;4965563;28;20520;-75
2022/08/07 05:09:54;;;;;;;10.27;9.68;;;;;;;12.56;60.21;101591.63;4967076;28;20043;-75
2022/08/07 05:12:48;;;;;;;10.45;9.65;;;;;;;12.75;60.40;101592.56;4953361;28;20129;-76
2022/08/07 05:15:20;;;;;;;10.75;10.05;;;;;;;12.92;59.47;101596.13;4965827;28;20034;-75
2022/08/07 05:17:48;;;;;;;10.38;9.77;;;;;;;13.11;59.35;101597.91;4965245;28;20045;-76
2022/08/07 05:20:23;;;;;;;10.25;9.65;;;;;;;13.24;58.58;101592.59;4963965;28;20042;-75
2022/08/07 05:22:53;;;;;;;10.15;9.45;;;;;;;13.37;58.47;101595.28;4971286;28;20033;-76
2022/08/07 05:25:21;;;;;;;9.20;8.70;;;;;;;13.49;58.33;101591.75;4974997;28;20045;-75
2022/08/07 05:27:47;;;;;;;10.02;9.43;;;;;;;13.57;58.45;101597.91;4964567;28;20122;-75
2022/08/07 05:30:16;;;;;;;10.13;9.52;;;;;;;13.74;58.52;101599.66;4966077;28;20038;-76
2022/08/07 05:32:46;;;;;;;10.63;9.85;;;;;;;13.90;58.29;101590.75;4962755;28;20117;-75
2022/08/07 05:35:13;;;;;;;10.68;9.90;;;;;;;14.05;58.08;101597.78;4967185;28;20041;-75
2022/08/07 05:37:39;;;;;;;9.43;8.82;;;;;;;14.18;57.25;101588.91;4964364;28;20134;-75
2022/08/07 05:40:07;;;;;;;10.95;10.25;;;;;;;14.31;56.93;101594.16;4957926;28;20037;-76
2022/08/07 05:42:33;;;;;;;10.85;9.93;;;;;;;14.41;56.40;101588.78;4965552;28;20457;-75
2022/08/07 05:44:59;;;;;;;11.43;10.57;;;;;;;14.48;56.49;101595.81;4964460;28;20042;-76
2022/08/07 05:47:25;;;;;;;9.60;8.95;;;;;;;14.56;55.92;101593.16;4963186;28;20529;-75
2022/08/07 05:49:52;;;;;;;10.63;10.02;;;;;;;14.65;55.64;101592.22;4963936;28;20126;-76
2022/08/07 05:52:20;;;;;;;11.32;10.52;;;;;;;14.75;55.39;101590.38;4949517;28;20041;-76
2022/08/07 05:54:47;;;;;;;11.50;10.80;;;;;;;14.83;55.04;101586.81;4965672;28;20034;-75
2022/08/07 05:57:15;;;;;;;11.48;10.77;;;;;;;14.95;54.93;101591.13;4963976;28;20408;-75
2022/08/07 05:59:43;;;;;;;10.98;10.30;;;;;;;15.13;54.85;101592.78;4951364;28;20532;-75
2022/08/07 06:02:14;;;;;;;11.85;11.15;;;;;;;15.29;54.23;101589.06;4963909;28;20412;-76
2022/08/07 06:04:51;;;;;;;12.02;11.20;;;;;;;15.44;54.17;101595.19;4964701;28;20042;-75
2022/08/07 06:07:18;;;;;;;11.88;10.77;;;;;;;15.54;54.19;101596.84;4963803;28;20488;-75
2022/08/07 06:09:44;;;;;;;11.55;10.73;;;;;;;15.67;54.31;101597.63;4986446;28;20043;-76
2022/08/07 06:12:10;;;;;;;11.13;10.52;;;;;;;15.77;54.23;101594.88;4964350;28;20030;-75
2022/08/07 06:14:35;;;;;;;11.50;10.90;;;;;;;15.86;54.17;101598.34;4964746;28;20031;-75
2022/08/07 06:17:03;;;;;;;10.98;10.38;;;;;;;15.96;54.27;101600.00;4970899;28;20478;-76
2022/08/07 06:19:33;;;;;;;10.82;10.23;;;;;;;16.06;53.82;101596.34;4968053;28;20092;-76
2022/08/07 06:22:00;;;;;;;11.40;10.43;;;;;;;16.18;53.69;101598.81;4983894;28;20493;-76
2022/08/07 06:24:26;;;;;;;10.18;9.55;;;;;;;16.34;53.60;101594.19;4964170;28;20042;-75
2022/08/07 06:26:51;;;;;;;11.05;10.07;;;;;;;16.50;53.23;101593.97;4965931;28;20073;-75
2022/08/07 06:29:16;;;;;;;10.77;10.00;;;;;;;16.59;52.80;101581.41;4963169;28;20039;-75
2022/08/07 06:31:42;;;;;;;11.00;10.32;;;;;;;16.72;52.32;101586.56;4965958;28;20485;-76
2022/08/07 06:34:07;;;;;;;10.45;9.85;;;;;;;16.83;52.26;101588.19;4962878;28;20041;-76
2022/08/07 06:36:32;;;;;;;10.82;10.18;;;;;;;16.92;51.56;101586.28;4984019;28;20543;-75
2022/08/07 06:38:58;;;;;;;10.70;10.00;;;;;;;16.99;51.77;101580.84;4966457;28;20138;-75
2022/08/07 06:41:39;;;;;;;10.05;9.38;;;;;;;17.18;51.41;101588.53;4965343;28;20030;-76
2022/08/07 06:44:08;;;;;;;9.82;9.23;;;;;;;17.34;50.82;101587.34;4956925;28;20031;-75
2022/08/07 06:46:34;;;;;;;9.18;8.57;;;;;;;17.46;50.54;101584.50;4961918;28;20046;-76
2022/08/07 06:48:59;;;;;;;9.75;8.85;;;;;;;17.60;50.49;101594.03;4966174;28;20509;-76
2022/08/07 06:51:30;;;;;;;10.13;9.30;;;;;;;17.63;49.76;101577.94;4962401;28;20035;-76
2022/08/07 06:54:02;;;;;;;8.70;8.10;;;;;;;17.74;49.93;101587.53;4968533;28;20125;-76
2022/08/07 06:56:46;;;;;;;9.93;9.32;;;;;;;17.83;49.70;101590.97;4963373;28;20031;-75
2022/08/07 06:59:22;;;;;;;9.55;8.85;;;;;;;17.89;49.32;101586.41;4966709;28;20062;-75
2022/08/07 07:01:56;;;;;;;10.30;9.50;;;;;;;18.04;48.69;101587.84;4979652;28;20034;-76
2022/08/07 07:04:22;;;;;;;9.60;8.77;;;;;;;18.15;48.66;101583.16;4964283;28;20037;-76
2022/08/07 07:06:48;;;;;;;9.15;8.55;;;;;;;18.27;47.67;101589.19;4946446;28;20023;-76
2022/08/07 07:09:26;;;;;;;8.70;8.18;;;;;;;18.37;47.63;101583.63;4983430;28;20517;-75
2022/08/07 07:12:07;;;;;;;8.63;8.02;;;;;;;18.36;46.86;101579.16;4960804;28;20105;-76
2022/08/07 07:14:52;;;;;;;8.75;8.15;;;;;;;18.46;47.25;101581.66;4977751;28;20038;-76
2022/08/07 07:17:23;;;;;;;8.95;8.07;;;;;;;18.61;46.81;101582.19;4950983;28;20039;-76
2022/08/07 07:19:52;;;;;;;9.65;8.85;;;;;;;18.74;46.43;101585.44;4982716;28;20030;-75
2022/08/07 07:22:18;;;;;;;8.80;8.10;;;;;;;18.86;46.63;101580.75;4973038;28;20053;-76
2022/08/07 07:24:46;;;;;;;8.65;8.05;;;;;;;18.96;46.21;101576.94;4981699;28;20494;-76
2022/08/07 07:27:15;;;;;;;8.35;7.80;;;;;;;18.89;45.58;101575.31;4980098;28;20042;-75
2022/08/07 07:29:46;;;;;;;8.63;8.05;;;;;;;18.96;45.27;101576.94;4984403;28;20034;-76
2022/08/07 07:32:13;;;;;;;8.38;7.80;;;;;;;19.09;45.48;101572.19;4971835;28;20457;-75
2022/08/07 07:34:44;;;;;;;9.18;7.85;;;;;;;19.23;44.74;101562.91;4980077;28;20125;-76
2022/08/07 07:37:12;;;;;;;8.68;7.88;;;;;;;19.36;44.12;101565.22;4973768;28;20030;-76
2022/08/07 07:39:38;;;;;;;7.50;7.00;;;;;;;19.46;44.45;101564.06;4982935;28;20040;-76
2022/08/07 07:42:07;;;;;;;8.15;7.55;;;;;;;19.59;44.10;101568.16;4984954;28;20066;-76
2022/08/07 07:44:34;;;;;;;8.80;8.20;;;;;;;19.60;43.45;101561.03;4986406;28;20396;-76
2022/08/07 07:47:01;;;;;;;9.23;8.43;;;;;;;19.66;43.71;101556.41;4985055;28;20121;-75
2022/08/07 07:49:30;;;;;;;7.72;7.18;;;;;;;19.77;43.41;101555.25;4985678;28;20073;-75
2022/08/07 07:51:57;;;;;;;7.82;7.32;;;;;;;19.95;43.18;101551.16;4964888;28;20073;-76
2022/08/07 07:54:25;;;;;;;8.43;7.80;;;;;;;20.10;42.83;101551.59;4969702;28;20085;-75
2022/08/07 07:56:53;;;;;;;7.63;7.13;;;;;;;20.22;40.97;101546.78;4989757;28;20030;-75
2022/08/07 07:59:20;;;;;;;7.90;7.40;;;;;;;20.35;41.40;101542.78;4988872;28;20042;-76
2022/08/07 08:01:49;;;;;;;8.55;7.85;;;;;;;20.45;41.02;101543.41;4971567;28;20034;-76
2022/08/07 08:04:16;;;;;;;7.45;6.95;;;;;;;20.55;41.03;101545.78;4993076;28;20424;-74
2022/08/07 08:06:44;;;;;;;8.13;7.40;;;;;;;20.69;40.09;101541.78;4990519;28;20034;-75
2022/08/07 08:09:11;;;;;;;7.38;6.72;;;;;;;20.74;40.20;101540.69;4988801;28;20109;-75
2022/08/07 08:11:37;;;;;;;7.78;7.18;;;;;;;20.85;39.61;101531.41;4987803;28;20108;-74
2022/08/07 08:14:03;;;;;;;8.82;7.95;;;;;;;20.97;39.38;101541.75;4989301;28;20565;-75
2022/08/07 08:16:33;;;;;;;7.95;7.18;;;;;;;21.05;39.26;101549.56;4971589;28;20053;-76
2022/08/07 08:19:02;;;;;;;8.23;7.47;;;;;;;21.19;38.38;101540.06;4983250;28;20449;-76
2022/08/07 08:27:05;;;;;;;7.65;7.15;;;;;;;21.41;35.89;101544.75;4983267;28;20102;-75
2022/08/07 08:29:39;;;;;;;8.13;7.63;;;;;;;21.53;36.00;101547.00;4983956;28;20049;-75
2022/08/07 08:32:05;;;;;;;9.07;8.38;;;;;;;21.65;36.44;101551.94;4974053;28;20043;-75
2022/08/07 08:34:34;;;;;;;8.70;8.07;;;;;;;21.74;35.79;101537.28;4987056;28;20499;-75
2022/08/07 08:37:02;;;;;;;8.77;8.05;;;;;;;21.81;36.12;101536.13;4984498;28;20089;-75
2022/08/07 08:39:27;;;;;;;8.82;8.23;;;;;;;21.87;35.65;101526.94;4983750;28;20062;-74
2022/08/07 08:42:01;;;;;;;7.63;7.13;;;;;;;21.99;34.11;101533.69;4973309;28;20058;-76
2022/08/07 08:44:45;;;;;;;8.20;7.70;;;;;;;22.20;33.93;101532.91;4983385;28;20045;-75
2022/08/07 08:47:48;;;;;;;9.38;8.75;;;;;;;22.43;32.79;101539.19;4981250;28;20400;-75
2022/08/07 08:50:26;;;;;;;9.00;8.50;;;;;;;22.48;33.29;101526.44;4984393;28;20148;-74
2022/08/07 08:52:58;;;;;;;8.57;8.07;;;;;;;22.53;33.48;101532.50;4965055;28;20110;-75
2022/08/07 08:55:35;;;;;;;8.55;7.95;;;;;;;22.69;32.95;101530.09;4986827;28;20514;-73
2022/08/07 08:58:25;;;;;;;8.95;8.40;;;;;;;22.97;32.61;101525.31;4985109;28;20046;-74
2022/08/07 09:00:55;;;;;;;8.20;7.70;;;;;;;23.10;31.73;101514.03;4982460;28;20105;-75
2022/08/07 09:03:29;;;;;;;9.00;8.40;;;;;;;23.01;31.37;101511.75;4983348;28;20041;-75
2022/08/07 09:06:20;;;;;;;8.63;8.13;;;;;;;23.03;30.59;101502.66;4969107;28;20042;-74
2022/08/07 09:08:59;;;;;;;8.85;8.25;;;;;;;23.25;30.67;101512.50;4985005;28;20129;-75
2022/08/07 09:12:00;;;;;;;9.02;8.43;;;;;;;23.52;29.86;101503.19;4983761;28;20052;-75
2022/08/07 09:14:44;;;;;;;8.33;7.83;;;;;;;23.96;29.99;101508.41;4970546;28;20090;-75
2022/08/07 09:17:24;;;;;;;8.75;8.25;;;;;;;24.21;28.87;101499.16;4957269;28;20057;-75
2022/08/07 09:20:17;;;;;;;9.57;8.98;;;;;;;24.16;28.45;101502.06;4981065;28;20121;-74
2022/08/07 09:22:52;;;;;;;13.95;13.20;;;;;;;24.11;28.54;101506.81;4973377;28;20041;-74
2022/08/07 09:25:25;;;;;;;9.85;9.23;;;;;;;24.18;29.10;101499.28;4982152;28;20097;-74
2022/08/07 09:28:00;;;;;;;10.10;9.40;;;;;;;24.45;29.00;101503.41;4982847;28;20039;-74
2022/08/07 09:30:34;;;;;;;10.43;9.80;;;;;;;24.70;29.02;101494.09;4981685;28;20038;-75
2022/08/07 09:33:07;;;;;;;9.35;8.85;;;;;;;24.80;28.80;101498.06;4982595;28;20045;-74
2022/08/07 09:35:48;;;;;;;9.43;8.75;;;;;;;24.93;27.96;101492.91;4984560;28;20470;-74
2022/08/07 09:38:44;;;;;;;10.05;9.13;;;;;;;24.90;28.24;101488.56;4947217;28;20043;-75
2022/08/07 09:41:43;;;;;;;8.75;8.25;;;;;;;25.12;27.72;101487.44;4984248;28;20369;-75
2022/08/07 09:44:25;;;;;;;8.00;7.50;;;;;;;25.19;27.25;101488.91;4973274;28;20105;-75
2022/08/07 09:47:07;;;;;;;9.50;8.93;;;;;;;25.07;28.00;101486.81;4981348;28;20038;-74
2022/08/07 09:50:00;;;;;;;10.27;9.57;;;;;;;25.13;27.28;101481.09;4981752;28;20078;-74
2022/08/07 09:52:35;;;;;;;10.23;9.68;;;;;;;25.28;26.55;101476.75;4983926;28;20042;-75
2022/08/07 09:55:09;;;;;;;10.15;9.55;;;;;;;25.26;26.97;101467.88;4982221;28;20101;-74
2022/08/07 09:58:11;;;;;;;9.93;9.32;;;;;;;25.46;26.89;101472.19;4981515;28;20252;-75
2022/08/07 10:00:54;;;;;;;9.10;8.57;;;;;;;25.54;27.40;101461.84;4980458;28;20042;-75
2022/08/07 10:03:39;;;;;;;9.90;9.40;;;;;;;25.77;27.61;101458.75;4977994;28;20042;-74
2022/08/07 10:06:46;;;;;;;9.98;9.35;;;;;;;25.97;25.77;101459.53;4976143;28;20041;-74
2022/08/07 10:09:30;;;;;;;10.77;9.80;;;;;;;26.10;25.88;101448.88;4975443;28;20074;-74
2022/08/07 10:12:16;;;;;;;10.23;9.70;;;;;;;26.47;26.06;101449.47;4981302;28;20053;-75
2022/08/07 10:15:08;;;;;;;11.27;10.48;;;;;;;26.40;26.13;101451.66;4984726;28;20493;-74
2022/08/07 10:18:07;;;;;;;10.07;9.48;;;;;;;26.23;25.92;101445.38;4981563;28;20113;-75
2022/08/07 10:21:06;;;;;;;10.50;9.90;;;;;;;25.96;26.54;101431.59;4963488;28;20405;-75
2022/08/07 10:24:02;;;;;;;9.13;8.52;;;;;;;25.90;26.63;101431.06;4983788;28;20077;-74
2022/08/07 10:26:49;;;;;;;9.90;9.20;;;;;;;25.52;26.56;101431.34;4978820;28;20049;-75
2022/08/07 10:30:07;;;;;;;9.38;8.77;;;;;;;25.02;27.37;101427.66;4980733;28;20053;-75
2022/08/07 10:32:48;;;;;;;9.55;8.80;;;;;;;24.90;27.43;101426.44;4869813;29;20051;-74
2022/08/07 10:35:38;;;;;;;9.60;9.00;;;;;;;25.24;26.68;101423.84;4887441;29;20123;-75
2022/08/07 10:38:25;;;;;;;8.98;8.38;;;;;;;25.45;26.61;101413.69;4958530;28;20077;-75
2022/08/07 10:41:10;;;;;;;9.70;9.13;;;;;;;25.53;25.90;101412.31;4983781;28;20030;-75
2022/08/07 10:43:46;;;;;;;9.27;8.77;;;;;;;25.53;26.37;101411.44;4982566;28;20125;-75
2022/08/07 10:46:18;;;;;;;9.32;8.82;;;;;;;25.65;26.15;101408.09;4973886;28;20446;-75
2022/08/07 10:49:01;;;;;;;9.20;8.70;;;;;;;25.83;25.69;101408.00;4985842;28;20137;-75
2022/08/07 10:51:58;;;;;;;9.70;9.20;;;;;;;26.19;25.55;101400.50;4979734;28;20074;-75
2022/08/07 10:54:39;;;;;;;10.07;9.27;;;;;;;26.60;25.08;101390.97;4963006;28;20506;-75
2022/08/07 10:57:18;;;;;;;10.10;9.40;;;;;;;26.80;25.25;101390.66;4973354;28;20049;-75
2022/08/07 11:00:01;;;;;;;10.52;9.57;;;;;;;26.75;24.75;101381.03;4980264;28;20034;-75
2022/08/07 11:02:45;;;;;;;11.02;10.43;;;;;;;26.88;24.69;101377.50;4982218;28;20385;-75
2022/08/07 11:05:29;;;;;;;11.43;10.82;;;;;;;26.95;25.57;101374.41;4957678;28;20039;-75
2022/08/07 11:08:36;;;;;;;11.23;10.50;;;;;;;27.02;24.06;101379.34;4981235;28;20233;-75
2022/08/07 11:11:09;;;;;;;11.77;11.07;;;;;;;26.83;24.16;101378.75;4965881;28;20441;-75
2022/08/07 11:14:01;;;;;;;11.32;10.73;;;;;;;27.00;24.46;101375.88;4981332;28;20031;-75
2022/08/07 11:16:37;;;;;;;12.82;11.82;;;;;;;26.75;24.05;101371.09;4981689;28;20070;-75
2022/08/07 11:19:10;;;;;;;11.10;10.50;;;;;;;26.38;24.23;101369.66;4980029;28;20042;-74
2022/08/07 11:21:35;;;;;;;11.10;10.50;;;;;;;26.10;25.24;101368.59;4981113;28;20501;-75
2022/08/07 11:24:09;;;;;;;10.55;9.85;;;;;;;26.49;24.82;101356.38;4967838;28;20042;-75
2022/08/07 11:26:50;;;;;;;10.23;9.57;;;;;;;26.86;24.12;101354.19;4987039;28;20030;-75
2022/08/07 11:29:30;;;;;;;10.70;9.95;;;;;;;26.79;23.88;101355.53;4986218;28;20125;-75
2022/08/07 11:32:10;;;;;;;10.57;9.98;;;;;;;26.96;23.83;101357.19;4984364;28;20444;-75
2022/08/07 11:34:47;;;;;;;9.82;9.27;;;;;;;27.03;24.05;101350.41;4983704;28;20042;-74
2022/08/07 11:37:36;;;;;;;10.60;10.00;;;;;;;26.94;23.62;101343.75;4984759;28;20042;-75
2022/08/07 11:40:32;;;;;;;12.60;11.73;;;;;;;27.12;23.25;101341.72;4975068;28;20125;-75
2022/08/07 11:43:28;;;;;;;12.35;11.63;;;;;;;27.30;22.83;101335.19;4981588;28;20058;-74
2022/08/07 11:46:33;;;;;;;13.60;12.88;;;;;;;27.24;22.97;101334.69;4983444;28;20129;-75
2022/08/07 11:49:21;;;;;;;13.85;13.15;;;;;;;27.68;23.19;101328.25;4985606;28;20053;-75
2022/08/07 11:52:07;;;;;;;14.50;13.70;;;;;;;28.23;23.03;101330.03;4984821;28;20070;-75
2022/08/07 11:54:57;;;;;;;13.95;13.02;;;;;;;28.70;21.88;101323.19;4984744;28;20038;-75